Time;durP1;ratioP1;P1;durP2;ratioP2;P2;SDS_P1;SDS_P2;PMS_P1;PMS_P2;Temp;Humidity;BMP_temperature;BMP_pressure;BME280_temperature;BME280_humidity;BME280_pressure;Samples;Min_cycle;Max_cycle;Signal;HPM_P1;HPM_P2
2023/08/16 00:00:14;;;;;;;4.6;4;;;;;;;19.47;100;941.1729;;;;
2023/08/16 00:02:42;;;;;;;8.1;4.3;;;;;;;19.54;100;941.1588;;;;
2023/08/16 00:05:07;;;;;;;5.1;3.6;;;;;;;19.63;100;941.15;;;;
2023/08/16 00:07:34;;;;;;;4.5;3.9;;;;;;;19.65;100;941.1028;;;;
2023/08/16 00:09:57;;;;;;;5.4;4.1;;;;;;;19.67;100;941.0555;;;;
2023/08/16 00:12:25;;;;;;;5.4;4.4;;;;;;;19.71;100;941.0497;;;;
2023/08/16 00:14:50;;;;;;;6;4.1;;;;;;;19.69;100;941.0809;;;;
2023/08/16 00:17:18;;;;;;;4.8;4;;;;;;;19.61;100;941.079;;;;
2023/08/16 00:19:43;;;;;;;4.8;4.2;;;;;;;19.53;100;941.0255;;;;
2023/08/16 00:22:11;;;;;;;4.8;4.3;;;;;;;19.53;100;941.0078;;;;
2023/08/16 00:24:36;;;;;;;4.6;4.2;;;;;;;19.45;100;941.0506;;;;
2023/08/16 00:27:04;;;;;;;5.1;3.9;;;;;;;19.37;100;941.0463;;;;
2023/08/16 00:29:29;;;;;;;4.2;3.8;;;;;;;19.34;100;940.9822;;;;
2023/08/16 00:32:00;;;;;;;5.2;3.8;;;;;;;19.34;100;941.0347;;;;
2023/08/16 00:34:23;;;;;;;3.6;3.3;;;;;;;19.39;100;941.0427;;;;
2023/08/16 00:36:48;;;;;;;4.7;3.4;;;;;;;19.31;100;941.0515;;;;
2023/08/16 00:39:13;;;;;;;5.9;3.9;;;;;;;19.27;100;940.9626;;;;
2023/08/16 00:41:41;;;;;;;4.4;3.6;;;;;;;19.18;100;940.8939;;;;
2023/08/16 00:44:07;;;;;;;4.8;3.5;;;;;;;19.15;100;940.8547;;;;
2023/08/16 00:46:32;;;;;;;4.8;3.6;;;;;;;19.21;100;940.9063;;;;
2023/08/16 00:48:57;;;;;;;3.9;3.5;;;;;;;19.2;100;940.908;;;;
2023/08/16 00:51:23;;;;;;;3.8;3.3;;;;;;;19.04;100;940.7836;;;;
2023/08/16 00:53:48;;;;;;;3.6;3.3;;;;;;;19.15;100;940.7595;;;;
2023/08/16 00:56:14;;;;;;;3.6;3.2;;;;;;;19.21;98.19141;940.7908;;;;
2023/08/16 00:58:39;;;;;;;3.6;3.1;;;;;;;19.3;97.75879;940.7916;;;;
2023/08/16 01:01:07;;;;;;;3.7;3.2;;;;;;;19.36;98.56348;940.776;;;;
2023/08/16 01:03:31;;;;;;;4.9;3.6;;;;;;;19.35;99.37695;940.7922;;;;
2023/08/16 01:05:57;;;;;;;3.3;2.9;;;;;;;19.31;100;940.7455;;;;
2023/08/16 01:08:23;;;;;;;6.6;3.5;;;;;;;19.3;100;940.7626;;;;
2023/08/16 01:10:50;;;;;;;3.9;3.2;;;;;;;19.31;100;940.7695;;;;
2023/08/16 01:13:15;;;;;;;4.3;3.4;;;;;;;19.27;100;940.7866;;;;
2023/08/16 01:20:41;;;;;;;5.2;3.2;;;;;;;19.07;100;940.7725;;;;
2023/08/16 01:23:07;;;;;;;4;3.2;;;;;;;18.91;100;940.7011;;;;
2023/08/16 01:25:34;;;;;;;5.4;3.5;;;;;;;18.67;100;940.7453;;;;
2023/08/16 01:27:59;;;;;;;4.7;3.5;;;;;;;18.64;100;940.7903;;;;
2023/08/16 01:30:24;;;;;;;7.2;3.6;;;;;;;18.65;100;940.8119;;;;
2023/08/16 01:32:49;;;;;;;3.8;3.4;;;;;;;18.69;100;940.8096;;;;
2023/08/16 01:35:15;;;;;;;5.1;3.4;;;;;;;18.67;100;940.8148;;;;
2023/08/16 01:37:41;;;;;;;3.9;3.5;;;;;;;18.63;100;940.767;;;;
2023/08/16 01:40:08;;;;;;;3.8;3.4;;;;;;;18.62;100;940.8056;;;;
2023/08/16 01:42:31;;;;;;;5.2;3.2;;;;;;;18.6;100;940.8298;;;;
2023/08/16 01:44:57;;;;;;;5.2;3.5;;;;;;;18.62;100;940.8119;;;;
2023/08/16 01:47:28;;;;;;;4.7;3.2;;;;;;;18.54;100;940.8066;;;;
2023/08/16 01:49:55;;;;;;;5;3.3;;;;;;;18.49;100;940.8317;;;;
2023/08/16 01:52:20;;;;;;;4.6;3.1;;;;;;;18.46;100;940.8558;;;;
2023/08/16 01:54:45;;;;;;;3.4;3.1;;;;;;;18.45;100;940.8405;;;;
2023/08/16 01:57:11;;;;;;;3.6;3.3;;;;;;;18.47;100;940.8209;;;;
2023/08/16 01:59:36;;;;;;;3.3;3;;;;;;;18.37;100;940.7811;;;;
2023/08/16 02:02:04;;;;;;;3.4;3;;;;;;;18.27;100;940.7803;;;;
2023/08/16 02:04:29;;;;;;;5.5;2.9;;;;;;;18.21;100;940.8002;;;;
2023/08/16 02:06:55;;;;;;;4;3.5;;;;;;;18.16;100;940.8317;;;;
2023/08/16 02:09:20;;;;;;;4.4;3.2;;;;;;;18.11;100;940.7721;;;;
2023/08/16 02:11:47;;;;;;;3.9;3.5;;;;;;;18.1;100;940.7497;;;;
2023/08/16 02:14:12;;;;;;;5.9;5.4;;;;;;;18.02;100;940.8272;;;;
2023/08/16 02:16:37;;;;;;;4.4;3.8;;;;;;;17.83;100;940.7598;;;;
2023/08/16 02:19:02;;;;;;;3.9;2.8;;;;;;;17.74;100;940.7495;;;;
2023/08/16 02:21:29;;;;;;;7.7;3.6;;;;;;;17.68;100;940.665;;;;
2023/08/16 02:23:54;;;;;;;4.6;3.8;;;;;;;17.69;100;940.6609;;;;
2023/08/16 02:26:20;;;;;;;4.7;3.7;;;;;;;17.69;100;940.747;;;;
2023/08/16 02:28:45;;;;;;;5;3.3;;;;;;;17.76;100;940.7283;;;;
2023/08/16 02:31:11;;;;;;;5.7;3.8;;;;;;;17.75;100;940.7277;;;;
2023/08/16 02:33:36;;;;;;;4.6;3.4;;;;;;;17.77;100;940.7458;;;;
2023/08/16 02:36:04;;;;;;;3.3;3;;;;;;;17.82;100;940.7189;;;;
2023/08/16 02:38:28;;;;;;;3.5;3.2;;;;;;;17.85;100;940.6783;;;;
2023/08/16 02:40:54;;;;;;;3.6;3.3;;;;;;;17.79;100;940.6981;;;;
2023/08/16 02:43:19;;;;;;;3.1;2.8;;;;;;;17.72;100;940.6797;;;;
2023/08/16 02:45:45;;;;;;;5.5;3.1;;;;;;;17.63;100;940.6308;;;;
2023/08/16 02:48:10;;;;;;;4.2;3.2;;;;;;;17.62;100;940.6476;;;;
2023/08/16 02:50:37;;;;;;;4.4;2.9;;;;;;;17.61;100;940.6742;;;;
2023/08/16 02:53:02;;;;;;;3.3;3;;;;;;;17.54;100;940.6905;;;;
2023/08/16 02:55:32;;;;;;;3.3;3;;;;;;;17.55;100;940.6856;;;;
2023/08/16 02:58:03;;;;;;;3.8;3.2;;;;;;;17.61;100;940.7128;;;;
2023/08/16 03:00:34;;;;;;;4.6;3.1;;;;;;;17.54;100;940.6962;;;;
2023/08/16 03:03:03;;;;;;;4.9;3.3;;;;;;;17.52;100;940.7253;;;;
2023/08/16 03:05:29;;;;;;;4.6;3;;;;;;;17.54;100;940.6503;;;;
2023/08/16 03:07:57;;;;;;;3.9;2.8;;;;;;;17.47;100;940.7131;;;;
2023/08/16 03:10:22;;;;;;;4.4;3;;;;;;;17.4;100;940.6663;;;;
2023/08/16 03:12:51;;;;;;;3.8;3;;;;;;;17.31;100;940.7238;;;;
2023/08/16 03:15:16;;;;;;;5.8;3;;;;;;;17.28;100;940.713;;;;
2023/08/16 03:17:43;;;;;;;6.1;3.2;;;;;;;17.29;100;940.7587;;;;
2023/08/16 03:20:09;;;;;;;3.3;3;;;;;;;17.28;100;940.7902;;;;
2023/08/16 03:22:35;;;;;;;3.8;2.9;;;;;;;17.25;100;940.7632;;;;
2023/08/16 03:25:01;;;;;;;4.3;2.9;;;;;;;17.31;100;940.8115;;;;
2023/08/16 03:27:27;;;;;;;3.2;2.7;;;;;;;17.33;100;940.8121;;;;
2023/08/16 03:29:52;;;;;;;6.6;4;;;;;;;17.27;100;940.8386;;;;
2023/08/16 03:32:18;;;;;;;6.3;3.9;;;;;;;17.19;100;940.8706;;;;
2023/08/16 03:34:43;;;;;;;5.3;3.6;;;;;;;17.23;100;940.8439;;;;
2023/08/16 03:37:11;;;;;;;5;3.4;;;;;;;17.08;100;940.8261;;;;
2023/08/16 03:39:36;;;;;;;6.3;3.8;;;;;;;17;100;940.8411;;;;
2023/08/16 03:42:01;;;;;;;6.4;3.4;;;;;;;16.86;100;940.8531;;;;
2023/08/16 03:44:26;;;;;;;4.6;3.2;;;;;;;16.91;100;940.8848;;;;
2023/08/16 03:46:56;;;;;;;3.6;2.9;;;;;;;16.93;100;940.8958;;;;
2023/08/16 03:49:20;;;;;;;4.5;3;;;;;;;17.01;100;940.9617;;;;
2023/08/16 03:51:46;;;;;;;5.1;3.3;;;;;;;16.99;100;940.9547;;;;
2023/08/16 03:54:11;;;;;;;4.4;3.3;;;;;;;16.99;100;940.9048;;;;
2023/08/16 03:56:39;;;;;;;4.1;3.3;;;;;;;16.97;100;940.9662;;;;
2023/08/16 03:59:04;;;;;;;9;8.3;;;;;;;16.98;100;940.9661;;;;
2023/08/16 04:02:31;;;;;;;4.3;3.9;;;;;;;16.88;100;941.0203;;;;
2023/08/16 04:04:56;;;;;;;3.1;2.8;;;;;;;16.82;100;940.9686;;;;
2023/08/16 04:07:21;;;;;;;3.8;3.3;;;;;;;16.88;100;941.0564;;;;
2023/08/16 04:09:46;;;;;;;3.7;3;;;;;;;16.86;100;941.1379;;;;
2023/08/16 04:12:12;;;;;;;4.2;3.6;;;;;;;16.73;100;941.1678;;;;
2023/08/16 04:14:37;;;;;;;3.9;3.5;;;;;;;16.68;100;941.1506;;;;
2023/08/16 04:17:03;;;;;;;6;3.6;;;;;;;16.63;100;941.166;;;;
2023/08/16 04:19:31;;;;;;;4.7;4;;;;;;;16.63;100;941.1548;;;;
2023/08/16 04:21:56;;;;;;;4.6;3.6;;;;;;;16.68;100;941.2245;;;;
2023/08/16 04:24:22;;;;;;;5.4;3.3;;;;;;;16.77;100;941.1739;;;;
2023/08/16 04:26:47;;;;;;;5.2;3.3;;;;;;;16.7;100;941.242;;;;
2023/08/16 04:29:14;;;;;;;3.7;3.2;;;;;;;16.74;100;941.265;;;;
2023/08/16 04:31:40;;;;;;;4.7;3.6;;;;;;;16.68;100;941.3075;;;;
2023/08/16 04:34:07;;;;;;;3.8;3.1;;;;;;;16.71;100;941.3385;;;;
2023/08/16 04:36:31;;;;;;;4.4;2.7;;;;;;;16.69;100;941.3427;;;;
2023/08/16 04:38:59;;;;;;;3.3;2.7;;;;;;;16.76;100;941.3959;;;;
2023/08/16 04:41:26;;;;;;;4.6;3;;;;;;;16.74;100;941.3953;;;;
2023/08/16 04:43:53;;;;;;;3.1;2.8;;;;;;;16.63;100;941.4354;;;;
2023/08/16 04:46:18;;;;;;;3.9;3.3;;;;;;;16.59;100;941.4033;;;;
2023/08/16 04:48:43;;;;;;;3.6;3.1;;;;;;;16.66;100;941.4038;;;;
2023/08/16 04:51:08;;;;;;;4.5;3.2;;;;;;;16.64;100;941.4313;;;;
2023/08/16 04:53:36;;;;;;;3.9;3;;;;;;;16.73;100;941.5353;;;;
2023/08/16 04:56:01;;;;;;;4.1;3;;;;;;;16.81;100;941.5249;;;;
2023/08/16 04:58:27;;;;;;;4;2.9;;;;;;;16.75;100;941.5335;;;;
2023/08/16 05:00:52;;;;;;;5.1;3.4;;;;;;;16.76;100;941.5173;;;;
2023/08/16 05:03:18;;;;;;;3.7;2.7;;;;;;;16.77;100;941.5341;;;;
2023/08/16 05:05:43;;;;;;;3.3;2.8;;;;;;;16.75;100;941.6236;;;;
2023/08/16 05:08:11;;;;;;;2.8;2.6;;;;;;;16.78;100;941.6089;;;;
2023/08/16 05:10:38;;;;;;;3.4;3;;;;;;;16.74;100;941.6591;;;;
2023/08/16 05:13:03;;;;;;;4.6;2.9;;;;;;;16.9;100;941.7375;;;;
2023/08/16 05:15:30;;;;;;;5.2;3.3;;;;;;;16.88;100;941.7844;;;;
2023/08/16 05:17:56;;;;;;;3.9;3.2;;;;;;;16.86;100;941.7822;;;;
2023/08/16 05:20:22;;;;;;;4.2;3.1;;;;;;;16.9;100;941.7505;;;;
2023/08/16 05:22:47;;;;;;;3.4;3;;;;;;;16.94;100;941.8329;;;;
2023/08/16 05:25:13;;;;;;;4.2;2.9;;;;;;;17.05;100;941.7485;;;;
2023/08/16 05:27:38;;;;;;;4.2;3.1;;;;;;;17.03;100;941.7971;;;;
2023/08/16 05:30:05;;;;;;;3;2.7;;;;;;;17.16;100;941.8472;;;;
2023/08/16 05:32:31;;;;;;;5;2.7;;;;;;;17.15;100;941.8706;;;;
2023/08/16 05:34:56;;;;;;;4.7;3.6;;;;;;;17.31;100;941.8516;;;;
2023/08/16 05:37:21;;;;;;;2.6;2.4;;;;;;;18.31;99.76074;941.7947;;;;
2023/08/16 05:40:09;;;;;;;5;2.1;;;;;;;19.41;91.24414;941.8329;;;;
2023/08/16 05:42:33;;;;;;;3.7;2.1;;;;;;;20.96;83.49707;941.8635;;;;
2023/08/16 05:44:58;;;;;;;2.9;1.8;;;;;;;21.97;77.43164;941.8308;;;;
2023/08/16 05:47:23;;;;;;;2;1.8;;;;;;;23.06;72.26367;941.8231;;;;
2023/08/16 05:49:48;;;;;;;2.1;1.8;;;;;;;23.25;69.52051;941.7827;;;;
2023/08/16 05:52:15;;;;;;;2;1.8;;;;;;;24.03;67.85352;941.7703;;;;
2023/08/16 05:54:40;;;;;;;2.2;1.7;;;;;;;24.69;65.19434;941.8097;;;;
2023/08/16 05:57:06;;;;;;;1.6;1.5;;;;;;;25.19;62.38672;941.8223;;;;
2023/08/16 05:59:31;;;;;;;1.6;1.5;;;;;;;24.96;62.02344;941.7838;;;;
2023/08/16 06:01:58;;;;;;;1.9;1.7;;;;;;;25.48;61.90723;941.7372;;;;
2023/08/16 06:04:23;;;;;;;2.3;1.5;;;;;;;25.34;62.00586;941.7438;;;;
2023/08/16 06:06:52;;;;;;;1.5;1.4;;;;;;;25.72;60.66309;941.6696;;;;
2023/08/16 06:09:17;;;;;;;1.7;1.6;;;;;;;26.19;58.56348;941.6873;;;;
2023/08/16 06:11:43;;;;;;;2.4;1.8;;;;;;;25.32;61.12988;941.7173;;;;
2023/08/16 06:14:08;;;;;;;3.5;1.6;;;;;;;25.45;59.86035;941.7205;;;;
2023/08/16 06:16:37;;;;;;;1.7;1.6;;;;;;;26.11;59.89941;941.6969;;;;
2023/08/16 06:19:02;;;;;;;1.9;1.5;;;;;;;25.39;60.53711;941.6691;;;;
2023/08/16 06:21:30;;;;;;;2.8;1.7;;;;;;;26.22;57.4082;941.6916;;;;
2023/08/16 06:23:56;;;;;;;2.4;1.6;;;;;;;26.07;57.45996;941.6202;;;;
2023/08/16 06:26:20;;;;;;;1.6;1.5;;;;;;;27.3;55.93262;941.5906;;;;
2023/08/16 06:28:46;;;;;;;1.6;1.5;;;;;;;27.73;52.06836;941.4966;;;;
2023/08/16 06:31:13;;;;;;;2.7;1.4;;;;;;;24.96;59.39258;941.5149;;;;
2023/08/16 06:33:37;;;;;;;2.1;1.5;;;;;;;26.64;57.70996;941.4698;;;;
2023/08/16 06:36:05;;;;;;;2.5;1.6;;;;;;;26.3;56.24609;941.4866;;;;
2023/08/16 06:38:30;;;;;;;1.6;1.5;;;;;;;26.21;57.79688;941.4889;;;;
2023/08/16 06:40:57;;;;;;;2;1.6;;;;;;;27.09;55.56348;941.4094;;;;
2023/08/16 06:43:22;;;;;;;1.7;1.6;;;;;;;28.37;52.27344;941.463;;;;
2023/08/16 06:45:48;;;;;;;2.6;1.5;;;;;;;28.72;52.34961;941.4476;;;;
2023/08/16 06:48:13;;;;;;;1.5;1.4;;;;;;;29.11;51.01367;941.4319;;;;
2023/08/16 06:50:40;;;;;;;2.8;1.6;;;;;;;28.85;49.85352;941.4509;;;;
2023/08/16 06:53:05;;;;;;;1.8;1.7;;;;;;;27.68;53.80762;941.4387;;;;
2023/08/16 06:55:34;;;;;;;1.6;1.5;;;;;;;28.64;51.94922;941.428;;;;
2023/08/16 06:58:01;;;;;;;2.7;1.6;;;;;;;29.12;50.33691;941.3918;;;;
2023/08/16 07:00:26;;;;;;;1.9;1.5;;;;;;;27.34;53.91016;941.3162;;;;
2023/08/16 07:02:51;;;;;;;2.6;1.7;;;;;;;27.13;54.44141;941.2891;;;;
2023/08/16 07:05:16;;;;;;;1.8;1.6;;;;;;;28.06;54.85156;941.303;;;;
2023/08/16 07:07:41;;;;;;;1.4;1.3;;;;;;;28.28;53.18945;941.3198;;;;
2023/08/16 07:10:06;;;;;;;1.9;1.6;;;;;;;29.58;49.82813;941.3163;;;;
2023/08/16 07:12:33;;;;;;;2.3;1.6;;;;;;;30.53;47.62695;941.2939;;;;
2023/08/16 07:14:58;;;;;;;2.8;1.7;;;;;;;30.14;46.64355;941.2341;;;;
2023/08/16 07:17:26;;;;;;;1.4;1.3;;;;;;;30.33;45.56348;941.2283;;;;
2023/08/16 07:19:52;;;;;;;2.4;1.4;;;;;;;29.66;48.64355;941.2142;;;;
2023/08/16 07:22:20;;;;;;;1.5;1.4;;;;;;;30.32;47.72363;941.2045;;;;
2023/08/16 07:24:44;;;;;;;43.4;25;;;;;;;30.49;46.42676;941.2336;;;;
2023/08/16 07:27:13;;;;;;;3.5;2.7;;;;;;;30.32;46.81738;941.243;;;;
2023/08/16 07:29:38;;;;;;;3.3;1.9;;;;;;;31.13;44.67578;941.2153;;;;
2023/08/16 07:32:04;;;;;;;2.6;1.8;;;;;;;30.96;45.125;941.1836;;;;
2023/08/16 07:34:29;;;;;;;1.4;1.3;;;;;;;30.39;45.11719;941.1866;;;;
2023/08/16 07:36:54;;;;;;;1.8;1.4;;;;;;;31.05;44.5957;941.199;;;;
2023/08/16 07:39:20;;;;;;;2.1;1.6;;;;;;;31.42;44.12988;941.1746;;;;
2023/08/16 07:41:45;;;;;;;1.8;1.7;;;;;;;31.53;44.24805;941.1854;;;;
2023/08/16 07:44:10;;;;;;;1.6;1.5;;;;;;;30.16;47.20605;941.1852;;;;
2023/08/16 07:46:35;;;;;;;1.3;1.2;;;;;;;31.23;45.3916;941.142;;;;
2023/08/16 07:49:04;;;;;;;1.6;1.5;;;;;;;30.82;44.62012;941.0584;;;;
2023/08/16 07:51:29;;;;;;;2;1.4;;;;;;;31.9;43.4209;941.1097;;;;
2023/08/16 07:53:57;;;;;;;1.8;1.7;;;;;;;32.75;41.61816;941.1306;;;;
2023/08/16 07:56:22;;;;;;;1.7;1.3;;;;;;;33.25;40.07813;941.1636;;;;
2023/08/16 07:58:48;;;;;;;1.6;1.5;;;;;;;33.16;42.23242;941.1153;;;;
2023/08/16 08:01:13;;;;;;;1.5;1.4;;;;;;;33.56;39.66016;941.0898;;;;
2023/08/16 08:03:40;;;;;;;2.4;1.5;;;;;;;31.8;43.06445;941.0281;;;;
2023/08/16 08:06:06;;;;;;;1.5;1.4;;;;;;;33.87;40;941.1119;;;;
2023/08/16 08:08:32;;;;;;;1.9;1.7;;;;;;;34.87;38.16992;941.0652;;;;
2023/08/16 08:10:57;;;;;;;1.5;1.4;;;;;;;35.78;38.00488;941.0609;;;;
2023/08/16 08:13:25;;;;;;;1.9;1.7;;;;;;;34.58;36;941.0806;;;;
2023/08/16 08:16:00;;;;;;;2.7;1.6;;;;;;;33.16;38.13574;941.074;;;;
2023/08/16 08:18:31;;;;;;;1.4;1.3;;;;;;;32.55;39.51172;941.0524;;;;
2023/08/16 08:21:01;;;;;;;1.6;1.5;;;;;;;33.25;38.63574;941.0223;;;;
2023/08/16 08:23:28;;;;;;;1.7;1.6;;;;;;;33.54;36.15918;941.0303;;;;
2023/08/16 08:25:53;;;;;;;1.7;1.6;;;;;;;34.49;36.93262;941.0151;;;;
2023/08/16 08:28:20;;;;;;;1.4;1.3;;;;;;;34.76;37.36523;940.9949;;;;
2023/08/16 08:30:44;;;;;;;1.7;1.5;;;;;;;35.17;37.25391;941.0386;;;;
2023/08/16 08:33:13;;;;;;;1.6;1.5;;;;;;;35.57;32.66016;940.965;;;;
2023/08/16 08:35:38;;;;;;;2;1.5;;;;;;;36.02;34.3252;940.9821;;;;
2023/08/16 08:38:04;;;;;;;1.6;1.5;;;;;;;33.97;33.9668;940.9778;;;;
2023/08/16 08:40:56;;;;;;;1.4;1.2;;;;;;;33.6;36.41602;940.9802;;;;
2023/08/16 08:43:26;;;;;;;2.3;1.6;;;;;;;34.11;36.61328;940.9558;;;;
2023/08/16 08:45:51;;;;;;;2.7;1.5;;;;;;;34.91;36.6416;940.945;;;;
2023/08/16 08:48:15;;;;;;;1.7;1.5;;;;;;;35.84;34.54102;940.946;;;;
2023/08/16 08:50:42;;;;;;;1.6;1.5;;;;;;;34.99;37.33496;940.8864;;;;
2023/08/16 08:53:07;;;;;;;1.8;1.7;;;;;;;34.95;36.56055;940.8675;;;;
2023/08/16 08:55:34;;;;;;;1.7;1.6;;;;;;;35.16;35.28613;940.8231;;;;
2023/08/16 08:57:57;;;;;;;1.5;1.4;;;;;;;33.03;36.71875;940.8635;;;;
2023/08/16 09:00:25;;;;;;;2.6;1.6;;;;;;;31.84;40.02539;940.8351;;;;
2023/08/16 09:02:52;;;;;;;1.3;1.2;;;;;;;31.42;40.19141;940.7949;;;;
2023/08/16 09:05:18;;;;;;;1.5;1.4;;;;;;;30.9;41.86719;940.8073;;;;
2023/08/16 09:07:42;;;;;;;1.4;1.3;;;;;;;31.17;44.02148;940.8038;;;;
2023/08/16 09:10:09;;;;;;;1.7;1.6;;;;;;;31.91;43.76953;940.7917;;;;
2023/08/16 09:12:37;;;;;;;1.7;1.6;;;;;;;30.77;43.71875;940.7921;;;;
2023/08/16 09:15:03;;;;;;;1.7;1.6;;;;;;;30.71;43.55859;940.7874;;;;
2023/08/16 09:17:29;;;;;;;1.7;1.6;;;;;;;31.32;42.38477;940.7658;;;;
2023/08/16 09:20:20;;;;;;;1.4;1.3;;;;;;;31.25;40.64355;940.7477;;;;
2023/08/16 09:22:49;;;;;;;1.3;1.1;;;;;;;31.1;43.51172;940.6924;;;;
2023/08/16 09:25:14;;;;;;;1.3;1.2;;;;;;;30.18;40.06934;940.6486;;;;
2023/08/16 09:27:42;;;;;;;2;1.7;;;;;;;30.39;42.78809;940.6523;;;;
2023/08/16 09:30:07;;;;;;;1.5;1.4;;;;;;;30.35;44.30078;940.6017;;;;
2023/08/16 09:32:32;;;;;;;2.5;1.5;;;;;;;30.29;46.43164;940.5803;;;;
2023/08/16 09:35:01;;;;;;;1.6;1.5;;;;;;;29.8;46.62012;940.6078;;;;
2023/08/16 09:37:27;;;;;;;1.5;1.4;;;;;;;29.97;44.47754;940.5731;;;;
2023/08/16 09:39:52;;;;;;;1.7;1.6;;;;;;;30.5;43.58594;940.4785;;;;
2023/08/16 09:42:19;;;;;;;1.9;1.7;;;;;;;30.54;42.23926;940.4716;;;;
2023/08/16 09:44:48;;;;;;;1.5;1.4;;;;;;;30.4;45.05762;940.4775;;;;
2023/08/16 09:47:14;;;;;;;1.9;1.7;;;;;;;30.41;47.42285;940.4459;;;;
2023/08/16 09:49:39;;;;;;;1.9;1.7;;;;;;;30.18;50.14355;940.4021;;;;
2023/08/16 09:52:05;;;;;;;1.7;1.4;;;;;;;30.18;45.21484;940.4389;;;;
2023/08/16 09:54:30;;;;;;;2.4;1.5;;;;;;;30.24;45.3877;940.3929;;;;
2023/08/16 09:56:55;;;;;;;1.5;1.4;;;;;;;30.48;45.19629;940.3818;;;;
2023/08/16 09:59:49;;;;;;;1.4;1.3;;;;;;;30.35;48.95703;940.3102;;;;
2023/08/16 10:02:15;;;;;;;1.8;1.7;;;;;;;29.59;47.3252;940.2667;;;;
2023/08/16 10:04:40;;;;;;;1.5;1.4;;;;;;;29.42;47.8916;940.2866;;;;
2023/08/16 10:07:05;;;;;;;1.5;1.4;;;;;;;29.33;47.32227;940.2599;;;;
2023/08/16 10:09:30;;;;;;;1.7;1.6;;;;;;;29.34;50.36035;940.2776;;;;
2023/08/16 10:11:59;;;;;;;2.3;1.7;;;;;;;29.84;49.76074;940.3054;;;;
2023/08/16 10:14:24;;;;;;;1.4;1.3;;;;;;;29.89;50.99512;940.2831;;;;
2023/08/16 10:19:52;;;;;;;1.4;1.3;;;;;;;29.43;47.27246;940.1717;;;;
2023/08/16 10:22:20;;;;;;;1.7;1.6;;;;;;;29.83;46.77734;940.1914;;;;
2023/08/16 10:24:46;;;;;;;3;1.7;;;;;;;29.87;50.66992;940.1921;;;;
2023/08/16 10:27:15;;;;;;;1.7;1.6;;;;;;;29.8;49.20801;940.0528;;;;
2023/08/16 10:29:40;;;;;;;2.3;1.7;;;;;;;29.63;51.31055;940.0767;;;;
2023/08/16 10:32:07;;;;;;;2;1.8;;;;;;;29.95;48.88965;939.9846;;;;
2023/08/16 10:34:33;;;;;;;2.7;1.6;;;;;;;30;49.92188;940.0185;;;;
2023/08/16 10:36:58;;;;;;;1.6;1.5;;;;;;;30.48;49.58008;939.9681;;;;
2023/08/16 10:39:23;;;;;;;2;1.3;;;;;;;31.11;45.11523;939.9242;;;;
2023/08/16 10:41:51;;;;;;;1.7;1.4;;;;;;;31.32;46.64453;939.9622;;;;
2023/08/16 10:44:15;;;;;;;1.9;1.6;;;;;;;31.37;47.78613;939.939;;;;
2023/08/16 10:46:43;;;;;;;1.5;1.4;;;;;;;31.53;48.35352;939.9448;;;;
2023/08/16 10:49:08;;;;;;;1.8;1.7;;;;;;;31.36;49.38867;939.9117;;;;
2023/08/16 10:51:33;;;;;;;3.2;1.7;;;;;;;32.01;47.83008;939.9405;;;;
2023/08/16 10:53:58;;;;;;;1.7;1.6;;;;;;;32.21;47.2168;939.9064;;;;
2023/08/16 10:56:25;;;;;;;1.7;1.6;;;;;;;32.13;47.66211;939.9083;;;;
2023/08/16 10:58:50;;;;;;;1.7;1.6;;;;;;;33.28;43.54102;939.872;;;;
2023/08/16 11:01:16;;;;;;;1.8;1.7;;;;;;;34.01;42.51563;939.9166;;;;
2023/08/16 11:03:43;;;;;;;1.7;1.6;;;;;;;34.36;41.81445;939.8717;;;;
2023/08/16 11:06:10;;;;;;;1.8;1.7;;;;;;;34.56;43.77246;939.8746;;;;
2023/08/16 11:08:35;;;;;;;1.8;1.7;;;;;;;34.21;43.3418;939.8322;;;;
2023/08/16 11:11:02;;;;;;;2.9;2;;;;;;;33.29;46.06641;939.8608;;;;
2023/08/16 11:13:27;;;;;;;1.7;1.6;;;;;;;34.15;42.65039;939.8301;;;;
2023/08/16 11:17:01;;;;;;;1.8;1.7;;;;;;;35.49;40.58887;939.8578;;;;
2023/08/16 11:19:20;;;;;;;1.7;1.6;;;;;;;36.39;38.80469;939.8758;;;;
2023/08/16 11:21:47;;;;;;;2;1.7;;;;;;;35.29;41.45215;939.7742;;;;
2023/08/16 11:24:11;;;;;;;2.1;1.8;;;;;;;35.84;39.43555;939.8214;;;;
2023/08/16 11:26:36;;;;;;;1.9;1.7;;;;;;;36.22;40.1582;939.8045;;;;
2023/08/16 11:29:01;;;;;;;2;1.9;;;;;;;35.28;40.96875;939.7637;;;;
2023/08/16 11:31:27;;;;;;;2.1;1.6;;;;;;;35.95;39.32422;939.8264;;;;
2023/08/16 11:33:52;;;;;;;1.8;1.7;;;;;;;35.41;40.85938;939.7802;;;;
2023/08/16 11:36:17;;;;;;;4;1.9;;;;;;;36.36;38.66992;939.7983;;;;
2023/08/16 11:38:45;;;;;;;1.8;1.7;;;;;;;34.79;42.54004;939.6263;;;;
2023/08/16 11:41:18;;;;;;;1.9;1.8;;;;;;;34.86;42.9209;939.7153;;;;
2023/08/16 11:43:39;;;;;;;2.1;1.9;;;;;;;34.95;43.13477;939.6487;;;;
2023/08/16 11:46:05;;;;;;;2.3;1.8;;;;;;;33.67;45.16699;939.6337;;;;
2023/08/16 11:48:29;;;;;;;2.3;2;;;;;;;35.67;40.08594;939.601;;;;
2023/08/16 11:50:59;;;;;;;3.7;1.9;;;;;;;37.33;38.89648;939.5511;;;;
2023/08/16 11:53:24;;;;;;;2.2;1.7;;;;;;;37.04;40.55664;939.5945;;;;
2023/08/16 11:55:54;;;;;;;2;1.9;;;;;;;34.37;44.25977;939.5316;;;;
2023/08/16 11:58:20;;;;;;;2.1;2;;;;;;;34.91;46.01367;939.4866;;;;
2023/08/16 12:00:45;;;;;;;2;1.9;;;;;;;35.69;40.63086;939.514;;;;
2023/08/16 12:03:17;;;;;;;2.2;2;;;;;;;37.58;38.22754;939.5281;;;;
2023/08/16 12:05:41;;;;;;;2.1;1.9;;;;;;;38.58;36.19434;939.5332;;;;
2023/08/16 12:08:06;;;;;;;2.3;2.1;;;;;;;38.61;35.91602;939.5378;;;;
2023/08/16 12:10:32;;;;;;;2.3;2;;;;;;;38.59;35.1123;939.4633;;;;
2023/08/16 12:12:58;;;;;;;2.1;1.9;;;;;;;39.31;34.02344;939.4774;;;;
2023/08/16 12:15:23;;;;;;;2.3;2.1;;;;;;;38.88;35.52539;939.4238;;;;
2023/08/16 12:17:51;;;;;;;2.1;2;;;;;;;38.69;34.9375;939.4116;;;;
2023/08/16 12:20:24;;;;;;;2.8;1.8;;;;;;;39.07;34.66309;939.4277;;;;
2023/08/16 12:22:48;;;;;;;2.1;2;;;;;;;38.57;34.83203;939.4283;;;;
2023/08/16 12:25:15;;;;;;;2.4;1.9;;;;;;;37.79;35.47656;939.4012;;;;
2023/08/16 12:27:45;;;;;;;2.4;1.8;;;;;;;36.39;38.79297;939.4018;;;;
2023/08/16 12:30:15;;;;;;;2;1.8;;;;;;;35.83;40.0752;939.3528;;;;
2023/08/16 12:32:46;;;;;;;2;1.8;;;;;;;35.68;40.78613;939.3254;;;;
2023/08/16 12:35:16;;;;;;;2.1;1.9;;;;;;;35.05;41.9248;939.3301;;;;
2023/08/16 12:37:46;;;;;;;1.8;1.7;;;;;;;34.69;41.04785;939.2687;;;;
2023/08/16 12:40:11;;;;;;;2.4;2.2;;;;;;;34.41;43.10742;939.3062;;;;
2023/08/16 12:42:41;;;;;;;2.1;1.9;;;;;;;33.56;44.44629;939.2704;;;;
2023/08/16 12:45:06;;;;;;;2.1;1.9;;;;;;;33.15;45.15137;939.2308;;;;
2023/08/16 12:47:31;;;;;;;2.1;1.9;;;;;;;32.52;47.96777;939.2839;;;;
2023/08/16 12:49:56;;;;;;;2.2;2;;;;;;;32.33;47.40723;939.2341;;;;
2023/08/16 12:52:23;;;;;;;2.4;2.2;;;;;;;32.5;46.81445;939.236;;;;
2023/08/16 12:54:50;;;;;;;2.2;2;;;;;;;32.44;46.71191;939.2415;;;;
2023/08/16 12:57:13;;;;;;;2.1;1.9;;;;;;;32.43;46.7832;939.2281;;;;
2023/08/16 12:59:39;;;;;;;2.4;1.9;;;;;;;32.28;46.92383;939.144;;;;
2023/08/16 13:02:04;;;;;;;2.5;1.8;;;;;;;32.3;46.58887;939.1414;;;;
2023/08/16 13:04:31;;;;;;;2.3;2.1;;;;;;;32.44;46.96387;939.0783;;;;
2023/08/16 13:06:56;;;;;;;2.8;2.6;;;;;;;32.33;47.99512;939.0363;;;;
2023/08/16 13:09:23;;;;;;;2.1;1.9;;;;;;;32.23;49.72461;939.0187;;;;
2023/08/16 13:11:48;;;;;;;2.6;2.2;;;;;;;31.92;48.94727;939.0273;;;;
2023/08/16 13:14:16;;;;;;;2.5;2.1;;;;;;;32.01;47.32715;939.0131;;;;
2023/08/16 13:16:41;;;;;;;3.6;2.1;;;;;;;32.15;49.1748;938.9377;;;;
2023/08/16 13:19:07;;;;;;;2.1;1.9;;;;;;;32.27;48.2168;938.9369;;;;
2023/08/16 13:21:33;;;;;;;3.1;1.9;;;;;;;31.93;47.20996;938.9695;;;;
2023/08/16 13:23:57;;;;;;;1.9;1.8;;;;;;;31.63;49.2041;938.9054;;;;
2023/08/16 13:26:22;;;;;;;2.4;1.7;;;;;;;31.6;48.50586;938.9152;;;;
2023/08/16 13:28:47;;;;;;;2.9;2.2;;;;;;;31.02;52.46094;938.8253;;;;
2023/08/16 13:31:12;;;;;;;2.2;2;;;;;;;30.99;51.40527;938.8198;;;;
2023/08/16 13:33:39;;;;;;;1.9;1.8;;;;;;;31.12;51.95898;938.846;;;;
2023/08/16 13:36:04;;;;;;;2.1;1.9;;;;;;;31.19;53.23535;938.7917;;;;
2023/08/16 13:38:29;;;;;;;1.8;1.7;;;;;;;31.3;48.99902;938.8072;;;;
2023/08/16 13:40:54;;;;;;;2.6;1.9;;;;;;;31.37;49.41406;938.7791;;;;
2023/08/16 13:43:20;;;;;;;1.8;1.7;;;;;;;31.48;48.00195;938.783;;;;
2023/08/16 13:45:45;;;;;;;1.8;1.7;;;;;;;31.35;49.51953;938.7841;;;;
2023/08/16 13:48:14;;;;;;;2.1;2;;;;;;;31.1;51.63379;938.8047;;;;
2023/08/16 13:50:39;;;;;;;2.1;1.8;;;;;;;31.03;50.42969;938.788;;;;
2023/08/16 13:53:05;;;;;;;3;1.9;;;;;;;31.22;50.43945;938.7452;;;;
2023/08/16 13:55:30;;;;;;;1.9;1.8;;;;;;;30.82;51.97168;938.7449;;;;
2023/08/16 13:57:55;;;;;;;1.9;1.8;;;;;;;30.68;50.72559;938.7065;;;;
2023/08/16 14:00:22;;;;;;;2;1.8;;;;;;;30.8;50.34375;938.6558;;;;
2023/08/16 14:02:47;;;;;;;1.8;1.7;;;;;;;30.86;51.34375;938.6154;;;;
2023/08/16 14:05:13;;;;;;;2.1;1.8;;;;;;;30.54;51.42676;938.5016;;;;
2023/08/16 14:07:42;;;;;;;2.2;2;;;;;;;30.7;50.65625;938.5661;;;;
2023/08/16 14:10:05;;;;;;;1.8;1.7;;;;;;;30.71;51.57715;938.5848;;;;
2023/08/16 14:12:31;;;;;;;1.8;1.7;;;;;;;30.75;51.56934;938.56;;;;
2023/08/16 14:14:56;;;;;;;2;1.8;;;;;;;30.58;51.89648;938.5087;;;;
2023/08/16 14:17:22;;;;;;;2;1.8;;;;;;;30.57;50.55762;938.5469;;;;
2023/08/16 14:19:48;;;;;;;2;1.8;;;;;;;30.86;51.05664;938.5745;;;;
2023/08/16 14:22:16;;;;;;;2.1;1.8;;;;;;;30.8;49.37598;938.5571;;;;
2023/08/16 14:24:41;;;;;;;1.8;1.7;;;;;;;30.81;49.83105;938.587;;;;
2023/08/16 14:27:07;;;;;;;1.9;1.8;;;;;;;30.77;50.92676;938.5214;;;;
2023/08/16 14:29:32;;;;;;;2;1.9;;;;;;;30.86;49.47852;938.5245;;;;
2023/08/16 14:31:57;;;;;;;2.1;1.9;;;;;;;30.92;50.7998;938.448;;;;
2023/08/16 14:34:25;;;;;;;2;1.8;;;;;;;30.76;52.2168;938.4241;;;;
2023/08/16 14:36:51;;;;;;;4.1;1.9;;;;;;;30.83;52.25977;938.4755;;;;
2023/08/16 14:39:16;;;;;;;1.9;1.8;;;;;;;30.31;54.33691;938.3528;;;;
2023/08/16 14:45:32;;;;;;;4;2.2;;;;;;;29.98;53.77246;938.3428;;;;
2023/08/16 14:47:57;;;;;;;2.5;2;;;;;;;30.06;52.83984;938.3123;;;;
2023/08/16 14:50:22;;;;;;;2.1;2;;;;;;;30.02;52.29785;938.2964;;;;
2023/08/16 14:52:49;;;;;;;2.5;2.3;;;;;;;30.13;52.07324;938.26;;;;
2023/08/16 14:55:14;;;;;;;2.1;2;;;;;;;30.13;50.75879;938.1897;;;;
2023/08/16 14:57:43;;;;;;;2.2;1.9;;;;;;;30.05;53.45898;938.2296;;;;